sensor_id;sensor_type;location;lat;lon;timestamp;temperature;humidity
69731;SHT31;56996;48.138;11.538;2023-04-01T00:01:05;8.94;66.40
69731;SHT31;56996;48.138;11.538;2023-04-01T00:03:32;8.89;66.67
69731;SHT31;56996;48.138;11.538;2023-04-01T00:06:00;8.85;66.91
69731;SHT31;56996;48.138;11.538;2023-04-01T00:08:27;8.83;66.94
69731;SHT31;56996;48.138;11.538;2023-04-01T00:10:54;8.83;67.04
69731;SHT31;56996;48.138;11.538;2023-04-01T00:13:20;8.79;67.15
69731;SHT31;56996;48.138;11.538;2023-04-01T00:15:47;8.74;67.18
69731;SHT31;56996;48.138;11.538;2023-04-01T00:18:13;8.74;67.19
69731;SHT31;56996;48.138;11.538;2023-04-01T00:20:42;8.74;67.15
69731;SHT31;56996;48.138;11.538;2023-04-01T00:23:13;8.72;67.16
69731;SHT31;56996;48.138;11.538;2023-04-01T00:25:40;8.67;67.37
69731;SHT31;56996;48.138;11.538;2023-04-01T00:28:06;8.63;67.50
69731;SHT31;56996;48.138;11.538;2023-04-01T00:30:32;8.58;67.62
69731;SHT31;56996;48.138;11.538;2023-04-01T00:32:58;8.53;67.73
69731;SHT31;56996;48.138;11.538;2023-04-01T00:35:24;8.51;67.75
69731;SHT31;56996;48.138;11.538;2023-04-01T00:37:50;8.47;67.80
69731;SHT31;56996;48.138;11.538;2023-04-01T00:40:24;8.46;67.83
69731;SHT31;56996;48.138;11.538;2023-04-01T00:43:05;8.42;68.03
69731;SHT31;56996;48.138;11.538;2023-04-01T00:45:37;8.42;67.97
69731;SHT31;56996;48.138;11.538;2023-04-01T00:48:17;8.43;67.92
69731;SHT31;56996;48.138;11.538;2023-04-01T00:50:52;8.43;67.97
69731;SHT31;56996;48.138;11.538;2023-04-01T00:53:43;8.41;68.04
69731;SHT31;56996;48.138;11.538;2023-04-01T00:56:17;8.42;68.12
69731;SHT31;56996;48.138;11.538;2023-04-01T00:58:49;8.41;68.15
69731;SHT31;56996;48.138;11.538;2023-04-01T01:01:22;8.43;68.13
69731;SHT31;56996;48.138;11.538;2023-04-01T01:03:50;8.44;68.11
69731;SHT31;56996;48.138;11.538;2023-04-01T01:35:46;8.70;67.41
69731;SHT31;56996;48.138;11.538;2023-04-01T01:38:17;8.72;67.28
69731;SHT31;56996;48.138;11.538;2023-04-01T01:40:57;8.72;67.27
69731;SHT31;56996;48.138;11.538;2023-04-01T01:43:26;8.72;67.30
69731;SHT31;56996;48.138;11.538;2023-04-01T01:46:00;8.71;67.31
69731;SHT31;56996;48.138;11.538;2023-04-01T01:48:32;8.69;67.26
69731;SHT31;56996;48.138;11.538;2023-04-01T01:51:00;8.67;67.33
69731;SHT31;56996;48.138;11.538;2023-04-01T01:53:29;8.66;67.30
69731;SHT31;56996;48.138;11.538;2023-04-01T01:55:55;8.65;67.30
69731;SHT31;56996;48.138;11.538;2023-04-01T01:58:25;8.66;67.29
69731;SHT31;56996;48.138;11.538;2023-04-01T02:00:59;8.67;67.30
69731;SHT31;56996;48.138;11.538;2023-04-01T02:03:31;8.68;67.14
69731;SHT31;56996;48.138;11.538;2023-04-01T02:06:02;8.70;67.09
69731;SHT31;56996;48.138;11.538;2023-04-01T02:08:41;8.70;67.10
69731;SHT31;56996;48.138;11.538;2023-04-01T02:11:13;8.71;67.01
69731;SHT31;56996;48.138;11.538;2023-04-01T02:13:54;8.71;66.95
69731;SHT31;56996;48.138;11.538;2023-04-01T02:16:42;8.71;66.95
69731;SHT31;56996;48.138;11.538;2023-04-01T02:19:31;8.71;66.82
69731;SHT31;56996;48.138;11.538;2023-04-01T02:22:04;8.70;66.80
69731;SHT31;56996;48.138;11.538;2023-04-01T02:24:36;8.70;66.81
69731;SHT31;56996;48.138;11.538;2023-04-01T02:27:03;8.69;66.84
69731;SHT31;56996;48.138;11.538;2023-04-01T02:29:30;8.70;66.79
69731;SHT31;56996;48.138;11.538;2023-04-01T02:31:57;8.70;66.75
69731;SHT31;56996;48.138;11.538;2023-04-01T02:34:24;8.69;66.73
69731;SHT31;56996;48.138;11.538;2023-04-01T02:36:51;8.66;66.70
69731;SHT31;56996;48.138;11.538;2023-04-01T02:39:19;8.64;66.50
69731;SHT31;56996;48.138;11.538;2023-04-01T02:41:45;8.62;66.59
69731;SHT31;56996;48.138;11.538;2023-04-01T02:44:12;8.62;66.66
69731;SHT31;56996;48.138;11.538;2023-04-01T02:46:41;8.61;66.71
69731;SHT31;56996;48.138;11.538;2023-04-01T02:49:08;8.59;66.73
69731;SHT31;56996;48.138;11.538;2023-04-01T02:51:34;8.58;66.65
69731;SHT31;56996;48.138;11.538;2023-04-01T02:54:00;8.60;66.68
69731;SHT31;56996;48.138;11.538;2023-04-01T02:56:27;8.59;66.65
69731;SHT31;56996;48.138;11.538;2023-04-01T02:58:53;8.57;66.67
69731;SHT31;56996;48.138;11.538;2023-04-01T03:01:20;8.58;66.68
69731;SHT31;56996;48.138;11.538;2023-04-01T03:03:47;8.59;66.66
69731;SHT31;56996;48.138;11.538;2023-04-01T03:06:13;8.59;66.70
69731;SHT31;56996;48.138;11.538;2023-04-01T03:08:41;8.59;66.70
69731;SHT31;56996;48.138;11.538;2023-04-01T03:11:09;8.59;66.75
69731;SHT31;56996;48.138;11.538;2023-04-01T03:13:36;8.55;66.70
69731;SHT31;56996;48.138;11.538;2023-04-01T03:16:02;8.59;66.67
69731;SHT31;56996;48.138;11.538;2023-04-01T03:18:28;8.60;66.59
69731;SHT31;56996;48.138;11.538;2023-04-01T03:20:55;8.59;66.58
69731;SHT31;56996;48.138;11.538;2023-04-01T03:23:21;8.59;66.61
69731;SHT31;56996;48.138;11.538;2023-04-01T03:25:50;8.59;66.57
69731;SHT31;56996;48.138;11.538;2023-04-01T03:28:16;8.58;66.59
69731;SHT31;56996;48.138;11.538;2023-04-01T03:30:42;8.56;66.52
69731;SHT31;56996;48.138;11.538;2023-04-01T03:33:08;8.51;66.57
69731;SHT31;56996;48.138;11.538;2023-04-01T03:35:34;8.44;66.64
69731;SHT31;56996;48.138;11.538;2023-04-01T03:38:01;8.40;66.77
69731;SHT31;56996;48.138;11.538;2023-04-01T03:40:28;8.35;66.87
69731;SHT31;56996;48.138;11.538;2023-04-01T03:42:54;8.32;66.91
69731;SHT31;56996;48.138;11.538;2023-04-01T03:45:21;8.29;67.00
69731;SHT31;56996;48.138;11.538;2023-04-01T03:47:48;8.25;67.28
69731;SHT31;56996;48.138;11.538;2023-04-01T03:50:14;8.25;67.31
69731;SHT31;56996;48.138;11.538;2023-04-01T03:52:41;8.26;67.34
69731;SHT31;56996;48.138;11.538;2023-04-01T03:55:07;8.26;67.35
69731;SHT31;56996;48.138;11.538;2023-04-01T03:57:33;8.25;67.40
69731;SHT31;56996;48.138;11.538;2023-04-01T04:00:02;8.25;67.51
69731;SHT31;56996;48.138;11.538;2023-04-01T04:02:39;8.26;67.51
69731;SHT31;56996;48.138;11.538;2023-04-01T04:05:06;8.23;67.67
69731;SHT31;56996;48.138;11.538;2023-04-01T04:07:33;8.20;67.88
69731;SHT31;56996;48.138;11.538;2023-04-01T04:10:07;8.16;67.97
69731;SHT31;56996;48.138;11.538;2023-04-01T04:12:34;8.16;68.00
69731;SHT31;56996;48.138;11.538;2023-04-01T04:15:00;8.14;68.18
69731;SHT31;56996;48.138;11.538;2023-04-01T04:17:26;8.12;68.41
69731;SHT31;56996;48.138;11.538;2023-04-01T04:19:52;8.11;68.46
69731;SHT31;56996;48.138;11.538;2023-04-01T04:22:19;8.13;68.41
69731;SHT31;56996;48.138;11.538;2023-04-01T04:24:45;8.15;68.44
69731;SHT31;56996;48.138;11.538;2023-04-01T04:27:12;8.16;68.64
69731;SHT31;56996;48.138;11.538;2023-04-01T04:29:51;8.19;68.67
69731;SHT31;56996;48.138;11.538;2023-04-01T04:32:17;8.21;68.67
69731;SHT31;56996;48.138;11.538;2023-04-01T04:34:43;8.20;68.65
69731;SHT31;56996;48.138;11.538;2023-04-01T04:37:09;8.20;68.56
69731;SHT31;56996;48.138;11.538;2023-04-01T04:39:35;8.20;68.59
69731;SHT31;56996;48.138;11.538;2023-04-01T04:42:01;8.20;68.63
69731;SHT31;56996;48.138;11.538;2023-04-01T04:44:27;8.20;68.52
69731;SHT31;56996;48.138;11.538;2023-04-01T04:46:53;8.22;68.38
69731;SHT31;56996;48.138;11.538;2023-04-01T04:49:22;8.25;68.28
69731;SHT31;56996;48.138;11.538;2023-04-01T04:51:48;8.28;68.30
69731;SHT31;56996;48.138;11.538;2023-04-01T04:54:15;8.29;68.31
69731;SHT31;56996;48.138;11.538;2023-04-01T04:56:52;8.30;68.20
69731;SHT31;56996;48.138;11.538;2023-04-01T04:59:19;8.31;68.20
69731;SHT31;56996;48.138;11.538;2023-04-01T05:02:05;8.35;68.14
69731;SHT31;56996;48.138;11.538;2023-04-01T05:04:35;8.38;68.04
69731;SHT31;56996;48.138;11.538;2023-04-01T05:07:03;8.42;67.85
69731;SHT31;56996;48.138;11.538;2023-04-01T05:09:29;8.45;67.70
69731;SHT31;56996;48.138;11.538;2023-04-01T05:11:56;8.48;67.54
69731;SHT31;56996;48.138;11.538;2023-04-01T05:14:23;8.51;67.48
69731;SHT31;56996;48.138;11.538;2023-04-01T05:17:01;8.56;67.21
69731;SHT31;56996;48.138;11.538;2023-04-01T05:19:28;8.59;66.99
69731;SHT31;56996;48.138;11.538;2023-04-01T05:21:53;8.65;66.67
69731;SHT31;56996;48.138;11.538;2023-04-01T05:24:19;8.67;66.54
69731;SHT31;56996;48.138;11.538;2023-04-01T05:26:46;8.70;66.42
69731;SHT31;56996;48.138;11.538;2023-04-01T05:29:12;8.74;66.30
69731;SHT31;56996;48.138;11.538;2023-04-01T05:31:38;8.80;65.93
69731;SHT31;56996;48.138;11.538;2023-04-01T05:34:04;8.83;65.67
69731;SHT31;56996;48.138;11.538;2023-04-01T05:36:30;8.86;65.51
69731;SHT31;56996;48.138;11.538;2023-04-01T05:38:57;8.89;65.30
69731;SHT31;56996;48.138;11.538;2023-04-01T05:41:24;8.89;65.15
69731;SHT31;56996;48.138;11.538;2023-04-01T05:43:50;8.93;65.12
69731;SHT31;56996;48.138;11.538;2023-04-01T05:46:35;9.04;65.07
69731;SHT31;56996;48.138;11.538;2023-04-01T05:49:10;9.10;64.73
69731;SHT31;56996;48.138;11.538;2023-04-01T05:51:36;9.13;64.57
69731;SHT31;56996;48.138;11.538;2023-04-01T05:54:04;9.16;64.39
69731;SHT31;56996;48.138;11.538;2023-04-01T05:56:31;9.19;64.12
69731;SHT31;56996;48.138;11.538;2023-04-01T05:58:58;9.22;64.14
69731;SHT31;56996;48.138;11.538;2023-04-01T06:01:24;9.27;64.10
69731;SHT31;56996;48.138;11.538;2023-04-01T06:03:50;9.33;63.78
69731;SHT31;56996;48.138;11.538;2023-04-01T06:06:23;9.34;63.51
69731;SHT31;56996;48.138;11.538;2023-04-01T06:08:54;9.37;63.55
69731;SHT31;56996;48.138;11.538;2023-04-01T06:11:31;9.45;63.55
69731;SHT31;56996;48.138;11.538;2023-04-01T06:17:16;9.76;62.56
69731;SHT31;56996;48.138;11.538;2023-04-01T06:22:53;10.30;61.02
69731;SHT31;56996;48.138;11.538;2023-04-01T06:25:35;10.70;59.45
69731;SHT31;56996;48.138;11.538;2023-04-01T06:42:13;11.12;57.44
69731;SHT31;56996;48.138;11.538;2023-04-01T06:44:58;10.96;57.76
69731;SHT31;56996;48.138;11.538;2023-04-01T06:48:09;10.74;57.49
69731;SHT31;56996;48.138;11.538;2023-04-01T06:54:31;10.54;57.84
69731;SHT31;56996;48.138;11.538;2023-04-01T06:57:34;10.56;57.95
69731;SHT31;56996;48.138;11.538;2023-04-01T07:00:13;10.68;57.56
69731;SHT31;56996;48.138;11.538;2023-04-01T07:02:50;10.80;57.76
69731;SHT31;56996;48.138;11.538;2023-04-01T07:05:39;10.91;57.36
69731;SHT31;56996;48.138;11.538;2023-04-01T07:08:06;11.02;57.38
69731;SHT31;56996;48.138;11.538;2023-04-01T07:13:45;11.19;56.79
69731;SHT31;56996;48.138;11.538;2023-04-01T07:16:31;11.26;56.41
69731;SHT31;56996;48.138;11.538;2023-04-01T07:22:14;11.46;56.01
69731;SHT31;56996;48.138;11.538;2023-04-01T07:25:19;11.56;55.29
69731;SHT31;56996;48.138;11.538;2023-04-01T07:28:02;11.60;55.35
69731;SHT31;56996;48.138;11.538;2023-04-01T07:33:15;11.78;54.74
69731;SHT31;56996;48.138;11.538;2023-04-01T07:41:56;12.02;54.42
69731;SHT31;56996;48.138;11.538;2023-04-01T07:53:08;12.48;53.51
69731;SHT31;56996;48.138;11.538;2023-04-01T07:56:07;12.59;52.96
69731;SHT31;56996;48.138;11.538;2023-04-01T08:05:27;12.66;51.84
69731;SHT31;56996;48.138;11.538;2023-04-01T08:08:18;12.57;51.54
69731;SHT31;56996;48.138;11.538;2023-04-01T08:11:31;12.49;51.73
69731;SHT31;56996;48.138;11.538;2023-04-01T08:20:50;12.65;51.08
69731;SHT31;56996;48.138;11.538;2023-04-01T08:23:54;12.71;50.96
69731;SHT31;56996;48.138;11.538;2023-04-01T08:26:44;13.11;50.35
69731;SHT31;56996;48.138;11.538;2023-04-01T08:29:16;13.28;50.07
69731;SHT31;56996;48.138;11.538;2023-04-01T08:34:19;13.58;49.18
69731;SHT31;56996;48.138;11.538;2023-04-01T08:36:51;14.09;48.18
69731;SHT31;56996;48.138;11.538;2023-04-01T08:42:59;14.91;46.57
69731;SHT31;56996;48.138;11.538;2023-04-01T08:56:50;15.22;44.60
69731;SHT31;56996;48.138;11.538;2023-04-01T09:09:17;16.03;42.69
69731;SHT31;56996;48.138;11.538;2023-04-01T09:21:01;17.65;40.39
69731;SHT31;56996;48.138;11.538;2023-04-01T09:24:13;17.32;39.57
69731;SHT31;56996;48.138;11.538;2023-04-01T09:29:39;16.51;40.61
69731;SHT31;56996;48.138;11.538;2023-04-01T09:35:20;16.11;42.13
69731;SHT31;56996;48.138;11.538;2023-04-01T09:37:52;16.18;41.24
69731;SHT31;56996;48.138;11.538;2023-04-01T09:40:42;16.31;41.33
69731;SHT31;56996;48.138;11.538;2023-04-01T09:44:15;16.43;41.15
69731;SHT31;56996;48.138;11.538;2023-04-01T09:50:29;16.68;40.88
69731;SHT31;56996;48.138;11.538;2023-04-01T10:18:06;15.72;41.32
69731;SHT31;56996;48.138;11.538;2023-04-01T10:37:09;15.31;42.19
69731;SHT31;56996;48.138;11.538;2023-04-01T10:46:30;15.11;43.39
69731;SHT31;56996;48.138;11.538;2023-04-01T10:49:26;15.02;43.34
69731;SHT31;56996;48.138;11.538;2023-04-01T11:20:31;14.06;50.28
69731;SHT31;56996;48.138;11.538;2023-04-01T11:30:20;14.16;50.32
69731;SHT31;56996;48.138;11.538;2023-04-01T11:33:11;14.30;50.47
69731;SHT31;56996;48.138;11.538;2023-04-01T11:35:55;14.39;50.83
69731;SHT31;56996;48.138;11.538;2023-04-01T11:38:53;14.25;50.78
69731;SHT31;56996;48.138;11.538;2023-04-01T12:00:33;13.51;54.28
69731;SHT31;56996;48.138;11.538;2023-04-01T12:06:25;12.79;55.92
69731;SHT31;56996;48.138;11.538;2023-04-01T12:11:45;12.33;57.35
69731;SHT31;56996;48.138;11.538;2023-04-01T12:17:30;12.07;58.36
69731;SHT31;56996;48.138;11.538;2023-04-01T12:20:37;12.02;58.25
69731;SHT31;56996;48.138;11.538;2023-04-01T12:23:32;11.84;58.61
69731;SHT31;56996;48.138;11.538;2023-04-01T12:26:27;11.56;59.57
69731;SHT31;56996;48.138;11.538;2023-04-01T12:37:36;11.37;60.81
69731;SHT31;56996;48.138;11.538;2023-04-01T12:40:20;11.35;60.89
69731;SHT31;56996;48.138;11.538;2023-04-01T12:49:14;11.15;60.95
69731;SHT31;56996;48.138;11.538;2023-04-01T12:52:05;11.08;60.99
69731;SHT31;56996;48.138;11.538;2023-04-01T13:12:29;11.01;61.16
69731;SHT31;56996;48.138;11.538;2023-04-01T13:15:40;11.01;61.03
69731;SHT31;56996;48.138;11.538;2023-04-01T13:18:39;10.97;61.43
69731;SHT31;56996;48.138;11.538;2023-04-01T13:27:43;11.01;61.79
69731;SHT31;56996;48.138;11.538;2023-04-01T13:44:20;10.81;63.84
69731;SHT31;56996;48.138;11.538;2023-04-01T13:55:21;10.90;63.67
69731;SHT31;56996;48.138;11.538;2023-04-01T14:00:54;10.86;63.89
69731;SHT31;56996;48.138;11.538;2023-04-01T14:03:53;10.91;63.93
69731;SHT31;56996;48.138;11.538;2023-04-01T14:12:42;11.03;64.20
69731;SHT31;56996;48.138;11.538;2023-04-01T14:26:45;10.95;63.94
69731;SHT31;56996;48.138;11.538;2023-04-01T14:32:39;11.03;63.47
69731;SHT31;56996;48.138;11.538;2023-04-01T14:35:41;11.02;63.44
69731;SHT31;56996;48.138;11.538;2023-04-01T14:38:35;11.02;63.49
69731;SHT31;56996;48.138;11.538;2023-04-01T14:41:17;11.09;63.71
69731;SHT31;56996;48.138;11.538;2023-04-01T14:47:22;11.21;64.18
69731;SHT31;56996;48.138;11.538;2023-04-01T14:50:14;11.25;64.05
69731;SHT31;56996;48.138;11.538;2023-04-01T14:53:33;11.23;64.23
69731;SHT31;56996;48.138;11.538;2023-04-01T14:56:01;11.23;64.08
69731;SHT31;56996;48.138;11.538;2023-04-01T14:58:42;11.19;64.34
69731;SHT31;56996;48.138;11.538;2023-04-01T15:09:43;11.04;64.23
69731;SHT31;56996;48.138;11.538;2023-04-01T15:19:08;10.88;64.23
69731;SHT31;56996;48.138;11.538;2023-04-01T15:22:39;10.95;63.93
69731;SHT31;56996;48.138;11.538;2023-04-01T15:25:17;10.95;63.02
69731;SHT31;56996;48.138;11.538;2023-04-01T15:31:15;11.01;62.76
69731;SHT31;56996;48.138;11.538;2023-04-01T15:45:56;11.27;62.01
69731;SHT31;56996;48.138;11.538;2023-04-01T15:57:38;11.40;60.68
69731;SHT31;56996;48.138;11.538;2023-04-01T16:00:49;11.40;60.49
69731;SHT31;56996;48.138;11.538;2023-04-01T16:06:40;11.39;59.02
69731;SHT31;56996;48.138;11.538;2023-04-01T16:12:44;11.35;59.22
69731;SHT31;56996;48.138;11.538;2023-04-01T16:15:44;11.31;58.77
69731;SHT31;56996;48.138;11.538;2023-04-01T16:21:28;11.34;58.88
69731;SHT31;56996;48.138;11.538;2023-04-01T16:27:02;11.28;58.28
69731;SHT31;56996;48.138;11.538;2023-04-01T16:30:03;11.26;58.46
69731;SHT31;56996;48.138;11.538;2023-04-01T16:32:54;11.23;58.57
69731;SHT31;56996;48.138;11.538;2023-04-01T16:35:30;11.23;58.38
69731;SHT31;56996;48.138;11.538;2023-04-01T16:38:26;11.18;58.34
69731;SHT31;56996;48.138;11.538;2023-04-01T16:41:10;11.13;58.22
69731;SHT31;56996;48.138;11.538;2023-04-01T16:43:43;11.07;58.32
69731;SHT31;56996;48.138;11.538;2023-04-01T16:54:44;10.94;58.23
69731;SHT31;56996;48.138;11.538;2023-04-01T16:57:52;10.90;57.85
69731;SHT31;56996;48.138;11.538;2023-04-01T17:03:11;10.81;57.40
69731;SHT31;56996;48.138;11.538;2023-04-01T17:05:48;10.77;57.46
69731;SHT31;56996;48.138;11.538;2023-04-01T17:11:16;10.73;57.54
69731;SHT31;56996;48.138;11.538;2023-04-01T17:19:45;10.73;58.02
69731;SHT31;56996;48.138;11.538;2023-04-01T17:30:35;10.59;58.06
69731;SHT31;56996;48.138;11.538;2023-04-01T17:33:32;10.59;58.27
69731;SHT31;56996;48.138;11.538;2023-04-01T17:39:44;10.56;57.94
69731;SHT31;56996;48.138;11.538;2023-04-01T17:45:45;10.55;57.85
69731;SHT31;56996;48.138;11.538;2023-04-01T17:48:38;10.52;57.98
69731;SHT31;56996;48.138;11.538;2023-04-01T17:51:19;10.47;57.93
69731;SHT31;56996;48.138;11.538;2023-04-01T17:59:49;10.38;58.04
69731;SHT31;56996;48.138;11.538;2023-04-01T18:05:22;10.38;58.06
69731;SHT31;56996;48.138;11.538;2023-04-01T18:08:02;10.39;58.11
69731;SHT31;56996;48.138;11.538;2023-04-01T18:10:57;10.39;58.12
69731;SHT31;56996;48.138;11.538;2023-04-01T18:13:36;10.38;58.24
69731;SHT31;56996;48.138;11.538;2023-04-01T18:19:23;10.37;58.34
69731;SHT31;56996;48.138;11.538;2023-04-01T18:22:29;10.35;58.53
69731;SHT31;56996;48.138;11.538;2023-04-01T18:27:43;10.30;58.99
69731;SHT31;56996;48.138;11.538;2023-04-01T18:32:51;10.27;59.87
69731;SHT31;56996;48.138;11.538;2023-04-01T18:47:25;10.00;60.24
69731;SHT31;56996;48.138;11.538;2023-04-01T18:55:55;9.93;61.76
69731;SHT31;56996;48.138;11.538;2023-04-01T19:01:19;9.94;62.35
69731;SHT31;56996;48.138;11.538;2023-04-01T19:03:58;9.91;62.65
69731;SHT31;56996;48.138;11.538;2023-04-01T19:06:53;9.93;63.08
69731;SHT31;56996;48.138;11.538;2023-04-01T19:09:27;9.94;62.84
69731;SHT31;56996;48.138;11.538;2023-04-01T19:17:42;9.87;63.25
69731;SHT31;56996;48.138;11.538;2023-04-01T19:32:14;9.78;63.71
69731;SHT31;56996;48.138;11.538;2023-04-01T19:41:15;9.65;63.75
69731;SHT31;56996;48.138;11.538;2023-04-01T19:50:14;9.56;63.83
69731;SHT31;56996;48.138;11.538;2023-04-01T19:52:48;9.52;63.88
69731;SHT31;56996;48.138;11.538;2023-04-01T20:00:48;9.43;64.07
69731;SHT31;56996;48.138;11.538;2023-04-01T20:25:23;9.05;65.02
69731;SHT31;56996;48.138;11.538;2023-04-01T20:28:01;9.04;65.07
69731;SHT31;56996;48.138;11.538;2023-04-01T20:36:31;8.98;65.28
69731;SHT31;56996;48.138;11.538;2023-04-01T20:45:38;8.99;65.31
69731;SHT31;56996;48.138;11.538;2023-04-01T20:51:57;8.98;65.30
69731;SHT31;56996;48.138;11.538;2023-04-01T20:54:59;8.99;65.30
69731;SHT31;56996;48.138;11.538;2023-04-01T21:06:02;9.03;65.19
69731;SHT31;56996;48.138;11.538;2023-04-01T21:11:35;9.03;65.08
69731;SHT31;56996;48.138;11.538;2023-04-01T21:17:41;9.08;65.07
69731;SHT31;56996;48.138;11.538;2023-04-01T21:23:28;9.11;65.09
69731;SHT31;56996;48.138;11.538;2023-04-01T21:38:32;9.10;65.11
69731;SHT31;56996;48.138;11.538;2023-04-01T21:50:37;9.14;65.00
69731;SHT31;56996;48.138;11.538;2023-04-01T22:06:15;9.12;65.02
69731;SHT31;56996;48.138;11.538;2023-04-01T22:09:12;9.15;65.04
69731;SHT31;56996;48.138;11.538;2023-04-01T22:11:58;9.14;65.00
69731;SHT31;56996;48.138;11.538;2023-04-01T22:17:29;9.15;65.14
69731;SHT31;56996;48.138;11.538;2023-04-01T22:23:01;9.20;65.02
69731;SHT31;56996;48.138;11.538;2023-04-01T22:28:37;9.19;65.00
69731;SHT31;56996;48.138;11.538;2023-04-01T22:31:36;9.19;64.92
69731;SHT31;56996;48.138;11.538;2023-04-01T22:36:57;9.22;64.80
69731;SHT31;56996;48.138;11.538;2023-04-01T22:39:39;9.21;64.80
69731;SHT31;56996;48.138;11.538;2023-04-01T22:56:15;9.22;64.54
69731;SHT31;56996;48.138;11.538;2023-04-01T22:58:53;9.21;64.56
69731;SHT31;56996;48.138;11.538;2023-04-01T23:01:36;9.21;64.60
69731;SHT31;56996;48.138;11.538;2023-04-01T23:04:18;9.22;64.54
69731;SHT31;56996;48.138;11.538;2023-04-01T23:06:55;9.20;64.62
69731;SHT31;56996;48.138;11.538;2023-04-01T23:09:27;9.19;64.62
69731;SHT31;56996;48.138;11.538;2023-04-01T23:12:04;9.20;64.69
69731;SHT31;56996;48.138;11.538;2023-04-01T23:14:38;9.19;64.67
69731;SHT31;56996;48.138;11.538;2023-04-01T23:17:24;9.18;64.62
69731;SHT31;56996;48.138;11.538;2023-04-01T23:20:22;9.20;64.63
69731;SHT31;56996;48.138;11.538;2023-04-01T23:23:08;9.18;64.66
69731;SHT31;56996;48.138;11.538;2023-04-01T23:29:16;9.13;64.82
69731;SHT31;56996;48.138;11.538;2023-04-01T23:31:56;9.10;64.96
69731;SHT31;56996;48.138;11.538;2023-04-01T23:34:29;9.11;64.90
69731;SHT31;56996;48.138;11.538;2023-04-01T23:37:08;9.10;64.87
69731;SHT31;56996;48.138;11.538;2023-04-01T23:39:45;9.08;64.89
69731;SHT31;56996;48.138;11.538;2023-04-01T23:42:20;9.06;64.98
69731;SHT31;56996;48.138;11.538;2023-04-01T23:45:00;9.05;64.97
69731;SHT31;56996;48.138;11.538;2023-04-01T23:47:33;9.05;65.00
69731;SHT31;56996;48.138;11.538;2023-04-01T23:50:05;9.04;65.00
69731;SHT31;56996;48.138;11.538;2023-04-01T23:53:41;9.05;65.00
69731;SHT31;56996;48.138;11.538;2023-04-01T23:55:51;9.06;65.02
69731;SHT31;56996;48.138;11.538;2023-04-01T23:58:33;9.04;65.05
